createdAt,value
2023-02-15T00:04:13.262Z,85.50
2023-02-15T00:09:34.985Z,85.96
2023-02-15T00:14:56.696Z,86.20
2023-02-15T00:20:19.387Z,85.33
2023-02-15T00:25:41.111Z,85.15
2023-02-15T00:31:08.385Z,85.17
2023-02-15T00:36:30.284Z,85.84
2023-02-15T00:41:52.048Z,85.84
2023-02-15T00:47:13.779Z,85.43
2023-02-15T00:52:35.616Z,85.14
2023-02-15T00:57:57.357Z,85.26
2023-02-15T01:03:20.685Z,85.47
2023-02-15T01:08:42.576Z,86.15
2023-02-15T01:14:05.014Z,85.51
2023-02-15T01:19:26.721Z,86.68
2023-02-15T01:24:51.019Z,85.35
2023-02-15T01:30:14.090Z,85.91
2023-02-15T01:35:37.531Z,85.88
2023-02-15T01:41:19.269Z,85.84
2023-02-15T01:46:51.036Z,85.52
2023-02-15T01:52:16.913Z,86.12
2023-02-15T01:57:39.786Z,86.13
2023-02-15T02:03:02.505Z,85.65
2023-02-15T02:08:25.132Z,85.53
2023-02-15T02:13:47.886Z,85.88
2023-02-15T02:19:21.888Z,86.34
2023-02-15T02:25:20.643Z,85.63
2023-02-15T02:31:15.886Z,85.95
2023-02-15T02:36:49.265Z,85.30
2023-02-15T02:42:37.195Z,84.45
2023-02-15T02:48:09.041Z,86.10
2023-02-15T02:53:33.821Z,85.59
2023-02-15T02:59:03.059Z,85.60
2023-02-15T03:04:32.197Z,86.05
2023-02-15T03:09:55.528Z,86.14
2023-02-15T03:15:21.257Z,84.85
2023-02-15T03:20:44.017Z,85.27
2023-02-15T03:26:08.834Z,85.33
2023-02-15T03:31:35.344Z,86.00
2023-02-15T03:37:08.233Z,85.06
2023-02-15T03:42:34.851Z,86.71
2023-02-15T03:48:00.474Z,86.29
2023-02-15T03:53:24.618Z,85.44
2023-02-15T03:59:04.892Z,85.39
2023-02-15T04:04:37.241Z,85.93
2023-02-15T04:10:17.385Z,85.71
2023-02-15T04:15:57.958Z,85.90
2023-02-15T04:21:39.550Z,86.09
2023-02-15T04:27:01.772Z,86.40
2023-02-15T04:32:23.469Z,85.47
2023-02-15T04:37:45.435Z,85.38
2023-02-15T04:43:07.132Z,86.37
2023-02-15T04:48:28.833Z,85.71
2023-02-15T04:53:50.665Z,85.55
2023-02-15T04:59:12.758Z,84.97
2023-02-15T05:04:34.577Z,85.14
2023-02-15T05:09:56.376Z,85.48
2023-02-15T05:15:18.199Z,85.67
2023-02-15T05:20:39.937Z,85.64
2023-02-15T05:26:20.124Z,84.36
2023-02-15T05:31:42.172Z,84.56
2023-02-15T05:37:04.011Z,83.77
2023-02-15T05:42:25.837Z,84.09
2023-02-15T05:47:47.573Z,84.31
2023-02-15T05:53:09.296Z,83.47
2023-02-15T05:58:33.935Z,82.22
2023-02-15T06:03:56.757Z,81.39
2023-02-15T06:09:21.123Z,84.17
2023-02-15T06:14:43.217Z,86.41
2023-02-15T06:20:05.674Z,85.97
2023-02-15T06:25:27.398Z,84.73
2023-02-15T06:30:49.273Z,86.42
2023-02-15T06:36:11.134Z,86.58
2023-02-15T06:41:33.128Z,85.54
2023-02-15T06:46:55.037Z,86.58
2023-02-15T06:52:16.826Z,87.24
2023-02-15T06:57:38.612Z,85.71
2023-02-15T07:03:00.389Z,86.32
2023-02-15T07:08:22.196Z,86.60
2023-02-15T07:13:44.005Z,86.17
2023-02-15T07:19:05.890Z,86.12
2023-02-15T07:24:27.641Z,86.06
2023-02-15T07:29:49.381Z,86.72
2023-02-15T07:35:11.147Z,86.72
2023-02-15T07:40:33.882Z,87.18
2023-02-15T07:45:59.707Z,87.41
2023-02-15T07:51:21.577Z,87.33
2023-02-15T07:56:43.292Z,87.74
2023-02-15T08:02:10.332Z,86.90
2023-02-15T08:07:32.027Z,86.67
2023-02-15T08:12:53.830Z,87.20
2023-02-15T08:18:15.513Z,86.63
2023-02-15T08:23:37.238Z,85.94
2023-02-15T08:28:59.974Z,86.94
2023-02-15T08:34:22.216Z,87.01
2023-02-15T08:39:44.430Z,87.20
2023-02-15T08:45:06.538Z,86.49
2023-02-15T08:50:28.364Z,86.85
2023-02-15T08:55:59.909Z,86.49
2023-02-15T09:01:24.764Z,86.05
2023-02-15T09:06:49.254Z,85.57
2023-02-15T09:12:11.158Z,86.67
2023-02-15T09:17:32.915Z,86.91
2023-02-15T09:22:57.612Z,85.41
2023-02-15T09:28:20.279Z,85.69
2023-02-15T09:33:43.876Z,86.18
2023-02-15T09:39:11.849Z,87.26
2023-02-15T09:44:58.073Z,87.16
2023-02-15T09:50:44.417Z,86.47
2023-02-15T09:56:21.007Z,84.98
2023-02-15T10:01:57.454Z,84.69
2023-02-15T10:07:35.577Z,86.23
2023-02-15T10:13:32.174Z,84.31
2023-02-15T10:19:34.340Z,83.50
2023-02-15T10:25:32.309Z,83.65
2023-02-15T10:31:40.456Z,83.48
2023-02-15T10:37:33.184Z,82.91
2023-02-15T10:42:54.906Z,82.12
2023-02-15T10:48:42.785Z,81.45
2023-02-15T10:54:22.991Z,81.37
2023-02-15T11:00:05.623Z,80.39
2023-02-15T11:05:42.411Z,80.08
2023-02-15T11:11:13.111Z,78.81
2023-02-15T11:16:45.256Z,77.25
2023-02-15T11:22:07.698Z,77.06
2023-02-15T11:27:36.111Z,76.76
2023-02-15T11:33:02.892Z,74.11
2023-02-15T11:38:29.805Z,73.36
2023-02-15T11:44:08.577Z,72.73
2023-02-15T11:49:35.570Z,72.27
2023-02-15T11:54:57.361Z,71.54
2023-02-15T12:00:37.056Z,70.74
2023-02-15T12:06:03.041Z,70.82
2023-02-15T12:11:36.397Z,70.31
2023-02-15T12:16:58.223Z,70.09
2023-02-15T12:22:24.770Z,69.78
2023-02-15T12:27:47.890Z,69.05
2023-02-15T12:33:23.761Z,67.81
2023-02-15T12:39:14.318Z,68.20
2023-02-15T12:44:38.014Z,66.93
2023-02-15T12:50:23.267Z,66.04
2023-02-15T12:55:53.656Z,65.63
2023-02-15T13:01:18.558Z,64.98
2023-02-15T13:06:49.712Z,65.15
2023-02-15T13:12:22.907Z,65.00
2023-02-15T13:17:44.921Z,65.48
2023-02-15T13:23:19.425Z,65.37
2023-02-15T13:28:48.473Z,65.97
2023-02-15T13:34:18.003Z,67.51
2023-02-15T13:39:48.175Z,66.95
2023-02-15T13:45:28.894Z,67.00
2023-02-15T13:51:02.186Z,66.87
2023-02-15T13:56:45.963Z,66.41
2023-02-15T14:02:29.540Z,67.00
2023-02-15T14:08:11.170Z,66.54
2023-02-15T14:13:49.009Z,65.39
2023-02-15T14:19:29.564Z,64.14
2023-02-15T14:25:27.218Z,63.30
2023-02-15T14:30:51.663Z,62.04
2023-02-15T14:36:20.492Z,62.10
2023-02-15T14:41:58.454Z,60.71
2023-02-15T14:47:26.427Z,61.44
2023-02-15T14:53:16.729Z,62.06
2023-02-15T14:58:39.128Z,61.87
2023-02-15T15:04:09.695Z,62.48
2023-02-15T15:09:34.897Z,62.05
2023-02-15T15:14:56.640Z,61.58
2023-02-15T15:20:27.993Z,61.37
2023-02-15T15:25:56.525Z,61.47
2023-02-15T15:31:31.435Z,61.98
2023-02-15T15:37:18.131Z,62.16
2023-02-15T15:43:09.056Z,62.16
2023-02-15T15:48:41.354Z,62.24
2023-02-15T15:54:04.836Z,62.39
2023-02-15T15:59:32.738Z,63.29
2023-02-15T16:04:54.847Z,63.29
2023-02-15T16:10:24.603Z,63.65
2023-02-15T16:15:53.815Z,64.05
2023-02-15T16:21:22.053Z,64.73
2023-02-15T16:26:54.215Z,65.21
2023-02-15T16:32:21.301Z,65.96
2023-02-15T16:37:43.315Z,66.99
2023-02-15T16:43:11.697Z,67.24
2023-02-15T16:48:40.105Z,66.54
2023-02-15T16:54:08.190Z,66.27
2023-02-15T16:59:51.641Z,66.82
2023-02-15T17:05:14.578Z,67.06
2023-02-15T17:10:42.538Z,67.61
2023-02-15T17:16:04.650Z,67.84
2023-02-15T17:21:33.234Z,68.57
2023-02-15T17:27:01.445Z,69.69
2023-02-15T17:32:27.987Z,70.57
2023-02-15T17:37:50.810Z,71.01
2023-02-15T17:43:12.590Z,71.89
2023-02-15T17:48:36.469Z,72.11
2023-02-15T17:54:17.086Z,72.57
2023-02-15T17:59:57.483Z,73.26
2023-02-15T18:05:38.130Z,74.74
2023-02-15T18:11:19.386Z,74.78
2023-02-15T18:16:45.640Z,74.57
2023-02-15T18:22:19.291Z,74.71
2023-02-15T18:27:41.022Z,75.16
2023-02-15T18:33:02.958Z,75.09
2023-02-15T18:38:24.679Z,75.46
2023-02-15T18:43:48.810Z,75.67
2023-02-15T18:49:10.559Z,75.60
2023-02-15T18:54:32.334Z,76.08
2023-02-15T18:59:54.078Z,76.46
2023-02-15T19:05:17.904Z,76.42
2023-02-15T19:10:39.729Z,76.62
2023-02-15T19:16:01.928Z,76.75
2023-02-15T19:21:24.520Z,77.68
2023-02-15T19:26:48.028Z,76.60
2023-02-15T19:32:11.782Z,76.39
2023-02-15T19:37:43.635Z,74.61
2023-02-15T19:43:15.260Z,73.35
2023-02-15T19:48:37.038Z,73.91
2023-02-15T19:53:59.748Z,74.83
2023-02-15T19:59:35.235Z,76.19
2023-02-15T20:04:57.043Z,77.22
2023-02-15T20:10:31.827Z,77.18
2023-02-15T20:15:53.639Z,77.27
2023-02-15T20:21:16.368Z,77.37
2023-02-15T20:26:38.522Z,77.42
2023-02-15T20:32:01.424Z,77.12
2023-02-15T20:37:28.823Z,77.47
2023-02-15T20:42:50.733Z,77.52
2023-02-15T20:48:12.508Z,77.88
2023-02-15T20:53:34.231Z,77.28
2023-02-15T20:58:55.950Z,77.43
2023-02-15T21:04:25.516Z,77.02
2023-02-15T21:09:47.461Z,76.93
2023-02-15T21:15:41.520Z,76.18
2023-02-15T21:21:06.208Z,75.76
2023-02-15T21:26:28.149Z,75.17
2023-02-15T21:31:50.302Z,75.24
2023-02-15T21:37:34.868Z,74.00
2023-02-15T21:43:15.896Z,74.06
2023-02-15T21:48:37.635Z,74.08
2023-02-15T21:53:59.678Z,74.05
2023-02-15T21:59:21.462Z,73.71
2023-02-15T22:04:43.172Z,74.46
2023-02-15T22:10:05.459Z,75.31
2023-02-15T22:15:33.712Z,77.03
2023-02-15T22:20:56.345Z,77.30
2023-02-15T22:26:22.982Z,77.98
2023-02-15T22:31:45.063Z,77.37
2023-02-15T22:37:08.470Z,76.77
2023-02-15T22:42:30.371Z,77.91
2023-02-15T22:47:54.471Z,76.61
2023-02-15T22:53:16.329Z,76.27
2023-02-15T22:58:38.111Z,76.19
2023-02-15T23:04:03.068Z,75.78
2023-02-15T23:09:25.326Z,76.06
2023-02-15T23:14:47.037Z,76.97
2023-02-15T23:20:14.398Z,76.79
2023-02-15T23:25:36.115Z,76.25
2023-02-15T23:30:59.333Z,75.94
2023-02-15T23:36:39.109Z,76.29
2023-02-15T23:42:03.610Z,75.50
2023-02-15T23:47:50.054Z,75.87
2023-02-15T23:53:11.780Z,76.38
2023-02-15T23:58:37.284Z,76.79
